Time;durP1;ratioP1;P1;durP2;ratioP2;P2;SDS_P1;SDS_P2;PMS_P1;PMS_P2;Temp;Humidity;BMP_temperature;BMP_pressure;BME280_temperature;BME280_humidity;BME280_pressure;Samples;Min_cycle;Max_cycle;Signal;HPM_P1;HPM_P2
2024/01/11 02:27:26;;;;;;;1.08;0.73;;;;;;;;;;5106732;27;20152;-49
2024/01/11 02:29:53;;;;;;;2.15;1.42;;;;;;;;;;5082218;28;20044;-51
2024/01/11 02:32:20;;;;;;;5.22;1.85;;;;;;;;;;5059743;28;20048;-54
2024/01/11 02:34:47;;;;;;;4.85;1.50;;;;;;;;;;5032434;28;20060;-51
2024/01/11 02:37:14;;;;;;;9.25;2.08;;;;;;;;;;5037821;28;20144;-49
2024/01/11 02:39:41;;;;;;;6.35;2.38;;;;;;;;;;5048023;28;20052;-50
2024/01/11 02:42:07;;;;;;;3.90;1.50;;;;;;;;;;5040986;28;20076;-54
2024/01/11 02:44:36;;;;;;;5.55;2.20;;;;;;;;;;5042724;28;20056;-48
2024/01/11 02:47:03;;;;;;;4.68;1.38;;;;;;;;;;5039206;28;20140;-49
2024/01/11 02:49:30;;;;;;;8.98;2.67;;;;;;;;;;5037980;28;20086;-50
2024/01/11 02:51:56;;;;;;;4.97;2.15;;;;;;;;;;5037385;28;20123;-49
2024/01/11 02:54:23;;;;;;;5.07;1.83;;;;;;;;;;5029745;28;20053;-49
2024/01/11 02:56:50;;;;;;;10.93;2.45;;;;;;;;;;5035883;28;20110;-50
2024/01/11 02:59:16;;;;;;;8.38;3.10;;;;;;;;;;5039582;28;20042;-47
2024/01/11 03:01:44;;;;;;;9.10;3.03;;;;;;;;;;5048037;28;20041;-50
2024/01/11 03:04:11;;;;;;;10.80;2.58;;;;;;;;;;5014865;28;20052;-48
2024/01/11 03:06:38;;;;;;;6.65;2.58;;;;;;;;;;5040573;28;20045;-48
2024/01/11 03:09:04;;;;;;;7.43;2.95;;;;;;;;;;5038305;28;20150;-51
2024/01/11 03:11:31;;;;;;;6.68;2.42;;;;;;;;;;5042612;28;20049;-48
2024/01/11 03:13:58;;;;;;;12.20;2.97;;;;;;;;;;5038755;28;20049;-50
2024/01/11 03:16:24;;;;;;;10.98;2.95;;;;;;;;;;5034958;28;20076;-50
2024/01/11 03:18:52;;;;;;;6.32;2.53;;;;;;;;;;5050075;28;20053;-50
2024/01/11 03:21:19;;;;;;;5.78;2.20;;;;;;;;;;5045712;28;20088;-51
2024/01/11 03:23:46;;;;;;;11.82;2.85;;;;;;;;;;5047320;28;20063;-52
2024/01/11 03:26:16;;;;;;;15.10;3.28;;;;;;;;;;5042989;28;21402;-46
2024/01/11 03:28:43;;;;;;;13.35;3.25;;;;;;;;;;5043285;28;20049;-48
2024/01/11 03:31:10;;;;;;;12.25;3.60;;;;;;;;;;5037107;28;20057;-48
2024/01/11 03:33:37;;;;;;;9.27;2.90;;;;;;;;;;5029342;28;20053;-48
2024/01/11 03:36:10;;;;;;;13.48;3.78;;;;;;;;;;5033699;28;20561;-48
2024/01/11 03:38:36;;;;;;;8.35;2.75;;;;;;;;;;5021504;28;20060;-49
2024/01/11 03:41:07;;;;;;;14.07;3.83;;;;;;;;;;5033944;28;20053;-48
2024/01/11 03:43:34;;;;;;;10.95;3.15;;;;;;;;;;5025501;28;20045;-52
2024/01/11 03:46:01;;;;;;;8.15;2.67;;;;;;;;;;5010473;28;20294;-45
2024/01/11 03:48:27;;;;;;;9.23;3.00;;;;;;;;;;5019015;28;20117;-50
2024/01/11 03:50:54;;;;;;;6.78;2.53;;;;;;;;;;5006395;28;20076;-50
2024/01/11 03:53:22;;;;;;;7.30;2.47;;;;;;;;;;5015877;28;20042;-55
2024/01/11 03:55:49;;;;;;;9.88;2.50;;;;;;;;;;5024726;28;20128;-54
2024/01/11 03:58:16;;;;;;;7.07;2.65;;;;;;;;;;5018489;28;20057;-54
2024/01/11 04:00:42;;;;;;;10.20;3.20;;;;;;;;;;5023232;28;20045;-52
2024/01/11 04:03:09;;;;;;;11.05;3.55;;;;;;;;;;5022127;28;20133;-51
2024/01/11 04:05:36;;;;;;;10.88;3.38;;;;;;;;;;5021691;28;20190;-52
2024/01/11 04:08:05;;;;;;;9.93;3.20;;;;;;;;;;5017898;28;20053;-53
2024/01/11 04:10:33;;;;;;;7.90;2.80;;;;;;;;;;5022959;28;20084;-54
2024/01/11 04:13:00;;;;;;;10.52;3.05;;;;;;;;;;5027176;28;20073;-54
2024/01/11 04:15:26;;;;;;;7.18;3.13;;;;;;;;;;5030241;28;20049;-49
2024/01/11 04:17:53;;;;;;;6.35;2.33;;;;;;;;;;5027901;28;20095;-53
2024/01/11 04:20:20;;;;;;;10.13;2.72;;;;;;;;;;5035154;28;20131;-48
2024/01/11 04:22:46;;;;;;;11.05;3.10;;;;;;;;;;5034188;28;20534;-51
2024/01/11 04:25:13;;;;;;;10.63;3.78;;;;;;;;;;5009527;28;20064;-51
2024/01/11 04:27:41;;;;;;;10.07;3.00;;;;;;;;;;5002091;28;20066;-52
2024/01/11 04:30:09;;;;;;;9.80;3.08;;;;;;;;;;5002501;28;20047;-53
2024/01/11 04:32:35;;;;;;;11.35;3.55;;;;;;;;;;4939987;28;20055;-55
2024/01/11 04:35:02;;;;;;;7.65;2.83;;;;;;;;;;4949669;28;20062;-49
2024/01/11 04:37:28;;;;;;;11.80;3.20;;;;;;;;;;5035628;28;20229;-51
2024/01/11 04:39:55;;;;;;;7.72;2.78;;;;;;;;;;4951949;28;20064;-48
2024/01/11 04:42:22;;;;;;;7.57;2.58;;;;;;;;;;4949859;28;20078;-52
2024/01/11 04:44:50;;;;;;;6.85;2.70;;;;;;;;;;4946006;28;20078;-49
2024/01/11 04:47:16;;;;;;;7.03;2.45;;;;;;;;;;5021788;28;20051;-52
2024/01/11 04:49:43;;;;;;;11.05;3.17;;;;;;;;;;4959483;28;20453;-50
2024/01/11 04:52:10;;;;;;;8.10;3.22;;;;;;;;;;4938933;28;20054;-49
2024/01/11 04:54:37;;;;;;;9.10;3.78;;;;;;;;;;4940430;28;20062;-49
2024/01/11 04:57:05;;;;;;;10.73;2.95;;;;;;;;;;4961420;28;20053;-51
2024/01/11 04:59:32;;;;;;;13.63;3.50;;;;;;;;;;4948769;28;20062;-51
2024/01/11 05:02:00;;;;;;;8.90;3.50;;;;;;;;;;4945889;28;20050;-55
2024/01/11 05:04:27;;;;;;;6.93;2.28;;;;;;;;;;4937844;28;20097;-49
2024/01/11 05:06:54;;;;;;;8.40;3.10;;;;;;;;;;4957252;28;20065;-51
2024/01/11 05:09:20;;;;;;;6.80;2.72;;;;;;;;;;4948507;28;20047;-48
2024/01/11 05:11:48;;;;;;;8.82;3.08;;;;;;;;;;4972851;28;20129;-53
2024/01/11 05:14:15;;;;;;;11.85;3.90;;;;;;;;;;5033171;28;20935;-48
2024/01/11 05:16:41;;;;;;;9.30;3.28;;;;;;;;;;4950002;28;20046;-49
2024/01/11 05:19:09;;;;;;;10.80;3.50;;;;;;;;;;4959129;28;20121;-53
2024/01/11 05:21:36;;;;;;;5.47;2.58;;;;;;;;;;4940693;28;20059;-50
2024/01/11 05:24:03;;;;;;;12.00;3.50;;;;;;;;;;4930540;28;20082;-51
2024/01/11 05:26:30;;;;;;;8.40;2.92;;;;;;;;;;4941849;28;20050;-51
2024/01/11 05:28:56;;;;;;;9.90;3.63;;;;;;;;;;4947186;28;20132;-54
2024/01/11 05:31:23;;;;;;;15.95;4.78;;;;;;;;;;4945693;28;20080;-53
2024/01/11 05:33:50;;;;;;;7.60;2.60;;;;;;;;;;4961809;28;20051;-55
2024/01/11 05:36:21;;;;;;;8.13;3.13;;;;;;;;;;4954006;28;20134;-51
2024/01/11 05:38:48;;;;;;;13.25;4.15;;;;;;;;;;4946878;28;20125;-51
2024/01/11 05:41:15;;;;;;;8.80;2.83;;;;;;;;;;4970433;28;20144;-51
2024/01/11 05:43:42;;;;;;;10.23;4.07;;;;;;;;;;5021493;28;20116;-50
2024/01/11 05:46:09;;;;;;;14.10;4.38;;;;;;;;;;4943728;28;20271;-52
2024/01/11 05:48:35;;;;;;;11.25;3.85;;;;;;;;;;4953141;28;20190;-53
2024/01/11 05:51:02;;;;;;;10.07;2.72;;;;;;;;;;4933979;28;20136;-48
2024/01/11 05:53:33;;;;;;;13.90;3.97;;;;;;;;;;4936571;28;20069;-56
2024/01/11 05:56:00;;;;;;;12.60;4.00;;;;;;;;;;4926033;28;20143;-49
2024/01/11 05:58:29;;;;;;;9.20;3.60;;;;;;;;;;4924708;28;20119;-51
2024/01/11 06:00:56;;;;;;;9.63;3.17;;;;;;;;;;4935974;28;20056;-53
2024/01/11 06:03:23;;;;;;;11.45;4.13;;;;;;;;;;4935460;28;20061;-54
2024/01/11 06:05:50;;;;;;;13.13;3.97;;;;;;;;;;5001494;28;20054;-54
2024/01/11 06:08:17;;;;;;;9.38;3.25;;;;;;;;;;4953947;28;20062;-54
2024/01/11 06:10:45;;;;;;;14.82;4.05;;;;;;;;;;4943952;28;20080;-50
2024/01/11 06:13:11;;;;;;;15.32;3.95;;;;;;;;;;4939427;28;20150;-51
2024/01/11 06:15:38;;;;;;;13.48;3.83;;;;;;;;;;4941601;28;20042;-51
2024/01/11 06:18:05;;;;;;;11.02;3.38;;;;;;;;;;4946799;28;20735;-51
2024/01/11 06:20:32;;;;;;;13.57;3.85;;;;;;;;;;4955498;28;20064;-50
2024/01/11 06:22:58;;;;;;;12.80;3.42;;;;;;;;;;4940457;28;20131;-54
2024/01/11 06:25:25;;;;;;;10.55;3.22;;;;;;;;;;5026883;28;20065;-53
2024/01/11 06:27:54;;;;;;;11.60;3.83;;;;;;;;;;4942130;28;20139;-52
2024/01/11 06:30:21;;;;;;;13.27;4.47;;;;;;;;;;4945923;28;20069;-51
2024/01/11 06:32:48;;;;;;;18.27;3.92;;;;;;;;;;4945128;28;20047;-49
2024/01/11 06:35:14;;;;;;;14.10;3.45;;;;;;;;;;4944145;28;20074;-50
2024/01/11 06:37:41;;;;;;;12.70;3.33;;;;;;;;;;4941913;28;20054;-50
2024/01/11 06:40:09;;;;;;;15.27;3.30;;;;;;;;;;4952763;28;20055;-51
2024/01/11 06:42:35;;;;;;;17.55;4.35;;;;;;;;;;4948604;28;20088;-52
2024/01/11 06:45:04;;;;;;;7.82;3.05;;;;;;;;;;4959611;28;20109;-49
2024/01/11 06:47:31;;;;;;;12.77;4.03;;;;;;;;;;4950695;28;20496;-48
2024/01/11 06:49:57;;;;;;;16.08;3.97;;;;;;;;;;4936797;28;20523;-50
2024/01/11 06:52:24;;;;;;;7.72;3.40;;;;;;;;;;4956761;28;20114;-51
2024/01/11 06:54:50;;;;;;;14.75;4.15;;;;;;;;;;4960680;28;20050;-52
2024/01/11 06:57:17;;;;;;;12.65;3.22;;;;;;;;;;4969769;28;20217;-54
2024/01/11 06:59:46;;;;;;;10.10;3.10;;;;;;;;;;4941487;28;20046;-49
2024/01/11 07:02:14;;;;;;;7.55;2.85;;;;;;;;;;4940597;28;20046;-48
2024/01/11 07:04:44;;;;;;;9.55;3.28;;;;;;;;;;4935837;28;20179;-50
2024/01/11 07:07:11;;;;;;;14.40;3.50;;;;;;;;;;4943430;28;20132;-49
2024/01/11 07:09:38;;;;;;;8.85;3.70;;;;;;;;;;4943099;28;20125;-46
2024/01/11 07:12:06;;;;;;;6.60;2.28;;;;;;;;;;4938573;28;20050;-49
2024/01/11 07:14:33;;;;;;;15.60;3.80;;;;;;;;;;4943240;28;20082;-52
2024/01/11 07:16:59;;;;;;;2.75;1.58;;;;;;;;;;4947928;28;20055;-49
2024/01/11 07:19:28;;;;;;;11.27;3.88;;;;;;;;;;4947516;28;21297;-54
2024/01/11 07:21:55;;;;;;;13.18;3.50;;;;;;;;;;4950525;28;20107;-52
2024/01/11 07:24:21;;;;;;;8.75;3.67;;;;;;;;;;4947434;28;20065;-52
2024/01/11 07:26:48;;;;;;;7.95;3.35;;;;;;;;;;4957251;28;20038;-51
2024/01/11 07:29:15;;;;;;;11.38;3.63;;;;;;;;;;4948136;28;20141;-53
2024/01/11 07:31:41;;;;;;;13.93;4.18;;;;;;;;;;4961258;28;20047;-51
2024/01/11 07:34:08;;;;;;;10.93;3.65;;;;;;;;;;4950879;28;20158;-51
2024/01/11 07:36:36;;;;;;;11.40;4.10;;;;;;;;;;4950324;28;20050;-49
2024/01/11 07:39:03;;;;;;;14.45;3.92;;;;;;;;;;4975427;28;20055;-51
2024/01/11 07:41:30;;;;;;;13.35;3.50;;;;;;;;;;4944450;28;20069;-51
2024/01/11 07:43:59;;;;;;;19.00;4.45;;;;;;;;;;4952887;28;20057;-51
2024/01/11 07:46:26;;;;;;;12.20;4.13;;;;;;;;;;4958297;28;20058;-55
2024/01/11 07:48:52;;;;;;;12.93;3.92;;;;;;;;;;4946053;28;20085;-49
2024/01/11 07:51:20;;;;;;;11.15;3.03;;;;;;;;;;4945351;28;20212;-50
2024/01/11 07:53:48;;;;;;;11.55;4.35;;;;;;;;;;4941585;28;20062;-52
2024/01/11 07:56:15;;;;;;;;;;;;;;;;;;4959194;28;20066;-50
2024/01/11 07:58:41;;;;;;;11.52;2.95;;;;;;;;;;4973107;28;19922;-49
2024/01/11 08:01:08;;;;;;;8.57;2.80;;;;;;;;;;4948229;28;20130;-52
2024/01/11 08:03:35;;;;;;;9.88;4.22;;;;;;;;;;4950273;28;20050;-48
2024/01/11 08:06:02;;;;;;;14.95;3.95;;;;;;;;;;4943810;28;20046;-53
2024/01/11 08:08:40;;;;;;;13.95;4.53;;;;;;;;;;4954545;28;20107;-50
2024/01/11 08:11:37;;;;;;;12.80;3.80;;;;;;;;;;4955403;28;20082;-49
2024/01/11 08:14:15;;;;;;;12.93;3.38;;;;;;;;;;4955244;28;20134;-50
2024/01/11 08:16:42;;;;;;;9.65;3.55;;;;;;;;;;4960295;28;20050;-48
2024/01/11 08:19:09;;;;;;;14.68;4.10;;;;;;;;;;4960297;28;20070;-49
2024/01/11 08:21:36;;;;;;;11.33;3.27;;;;;;;;;;4952521;28;20055;-48
2024/01/11 08:24:03;;;;;;;9.07;3.63;;;;;;;;;;4932925;28;20051;-53
2024/01/11 08:26:30;;;;;;;13.40;3.85;;;;;;;;;;4954532;28;20051;-48
2024/01/11 08:28:57;;;;;;;14.90;4.20;;;;;;;;;;4955062;28;20109;-51
2024/01/11 08:31:25;;;;;;;8.02;3.67;;;;;;;;;;4939726;28;20054;-47
2024/01/11 08:33:54;;;;;;;20.67;3.85;;;;;;;;;;4935313;28;20112;-48
2024/01/11 08:36:21;;;;;;;15.57;4.15;;;;;;;;;;4936523;28;20138;-50
2024/01/11 08:38:49;;;;;;;10.40;4.65;;;;;;;;;;4954927;28;20100;-47
2024/01/11 08:41:16;;;;;;;13.52;3.83;;;;;;;;;;4939809;28;20367;-50
2024/01/11 08:43:42;;;;;;;12.70;4.03;;;;;;;;;;4932057;28;20157;-53
2024/01/11 08:46:09;;;;;;;7.65;3.70;;;;;;;;;;4938449;28;20089;-52
2024/01/11 08:48:37;;;;;;;11.20;3.70;;;;;;;;;;4943277;28;20144;-54
2024/01/11 08:51:04;;;;;;;15.00;4.80;;;;;;;;;;4956674;28;20047;-50
2024/01/11 08:53:31;;;;;;;5.88;2.67;;;;;;;;;;4943204;28;20055;-48
2024/01/11 08:55:58;;;;;;;10.65;4.45;;;;;;;;;;4939473;28;20051;-52
2024/01/11 08:58:24;;;;;;;9.50;3.75;;;;;;;;;;4948945;28;20050;-54
2024/01/11 09:00:51;;;;;;;21.52;4.45;;;;;;;;;;4947114;28;20047;-46
2024/01/11 09:03:18;;;;;;;15.40;4.57;;;;;;;;;;4953253;28;20058;-48
2024/01/11 09:05:47;;;;;;;12.93;4.60;;;;;;;;;;4927167;28;20104;-51
2024/01/11 09:08:14;;;;;;;12.80;4.82;;;;;;;;;;4937627;28;20050;-52
2024/01/11 09:10:41;;;;;;;13.13;4.35;;;;;;;;;;4950745;28;20509;-49
2024/01/11 09:13:08;;;;;;;18.37;5.30;;;;;;;;;;4940891;28;20052;-51
2024/01/11 09:15:37;;;;;;;17.08;5.47;;;;;;;;;;4924408;28;20050;-54
2024/01/11 09:18:04;;;;;;;14.55;5.05;;;;;;;;;;4931499;28;20055;-51
2024/01/11 09:20:31;;;;;;;10.50;3.40;;;;;;;;;;4943205;28;20039;-50
2024/01/11 09:22:59;;;;;;;8.57;3.20;;;;;;;;;;4941761;28;20812;-53
2024/01/11 09:25:26;;;;;;;15.18;4.38;;;;;;;;;;4944810;28;20054;-48
2024/01/11 09:27:58;;;;;;;16.15;4.53;;;;;;;;;;4969607;28;20046;-52
2024/01/11 09:30:25;;;;;;;12.45;4.85;;;;;;;;;;4976863;28;20080;-49
2024/01/11 09:32:52;;;;;;;11.90;4.95;;;;;;;;;;4968900;28;20549;-50
2024/01/11 09:35:19;;;;;;;20.90;6.93;;;;;;;;;;4921436;28;20050;-47
2024/01/11 09:37:46;;;;;;;10.30;3.63;;;;;;;;;;4943764;28;20132;-51
2024/01/11 09:40:16;;;;;;;10.63;4.10;;;;;;;;;;4939524;28;21750;-51
2024/01/11 09:42:43;;;;;;;15.68;5.53;;;;;;;;;;4950324;28;20062;-48
2024/01/11 09:45:13;;;;;;;14.05;4.88;;;;;;;;;;4951293;28;20059;-51
2024/01/11 09:47:41;;;;;;;11.60;4.15;;;;;;;;;;4954141;28;20289;-50
2024/01/11 09:50:08;;;;;;;11.40;5.63;;;;;;;;;;4943263;28;20053;-52
2024/01/11 09:52:35;;;;;;;10.65;4.93;;;;;;;;;;4953719;28;20105;-49
2024/01/11 09:55:02;;;;;;;20.27;4.93;;;;;;;;;;4963661;28;20143;-49
2024/01/11 09:57:32;;;;;;;28.15;7.95;;;;;;;;;;4951434;28;20228;-49
2024/01/11 09:59:59;;;;;;;17.25;4.53;;;;;;;;;;4939953;28;20082;-52
2024/01/11 10:02:27;;;;;;;20.33;5.53;;;;;;;;;;4943280;28;20050;-55
2024/01/11 10:04:54;;;;;;;19.27;6.90;;;;;;;;;;4937760;28;20051;-50
2024/01/11 10:07:24;;;;;;;25.88;7.97;;;;;;;;;;4943910;28;20046;-50
2024/01/11 10:09:52;;;;;;;18.75;5.75;;;;;;;;;;4941499;28;20061;-50
2024/01/11 10:12:20;;;;;;;18.85;5.22;;;;;;;;;;4939109;28;20053;-51
2024/01/11 10:14:48;;;;;;;20.88;5.20;;;;;;;;;;4939046;28;20108;-48
2024/01/11 10:17:15;;;;;;;13.88;4.53;;;;;;;;;;4944559;28;20057;-48
2024/01/11 10:19:42;;;;;;;6.65;3.65;;;;;;;;;;4941902;28;20054;-47
2024/01/11 10:22:12;;;;;;;16.92;5.82;;;;;;;;;;5027265;28;20059;-52
2024/01/11 10:24:39;;;;;;;13.13;4.60;;;;;;;;;;4940757;28;20061;-50
2024/01/11 10:27:09;;;;;;;18.38;4.05;;;;;;;;;;4942020;28;20063;-48
2024/01/11 10:29:37;;;;;;;17.92;6.05;;;;;;;;;;4961931;28;20085;-51
2024/01/11 10:32:06;;;;;;;8.95;2.45;;;;;;;;;;4933586;28;20047;-46
2024/01/11 10:34:33;;;;;;;6.22;3.08;;;;;;;;;;4926938;28;20119;-45
2024/01/11 10:37:02;;;;;;;17.52;5.60;;;;;;;;;;4944648;28;20050;-47
2024/01/11 10:39:29;;;;;;;13.00;5.85;;;;;;;;;;5040355;28;20054;-48
2024/01/11 10:42:06;;;;;;;18.40;6.30;;;;;;;;;;4941133;28;20070;-52
2024/01/11 10:44:35;;;;;;;16.00;4.35;;;;;;;;;;4945384;28;20053;-45
2024/01/11 10:47:07;;;;;;;15.32;4.65;;;;;;;;;;4957817;28;20069;-45
2024/01/11 10:49:35;;;;;;;10.70;4.22;;;;;;;;;;4951322;28;20058;-48
2024/01/11 10:52:05;;;;;;;16.88;5.28;;;;;;;;;;4940333;28;20058;-50
2024/01/11 10:54:34;;;;;;;15.77;5.72;;;;;;;;;;4941122;28;20077;-47
2024/01/11 10:57:04;;;;;;;5.18;2.00;;;;;;;;;;4951146;28;20050;-46
2024/01/11 10:59:32;;;;;;;16.73;5.88;;;;;;;;;;4965560;28;20139;-48
2024/01/11 11:02:06;;;;;;;14.43;5.20;;;;;;;;;;4949415;28;20139;-49
2024/01/11 11:04:37;;;;;;;12.88;4.93;;;;;;;;;;4946646;28;20055;-47
2024/01/11 11:07:07;;;;;;;9.85;4.18;;;;;;;;;;4951739;28;20057;-53
2024/01/11 11:09:35;;;;;;;10.70;3.83;;;;;;;;;;4947223;28;20074;-50
2024/01/11 11:12:03;;;;;;;5.43;2.20;;;;;;;;;;4940124;28;20054;-48
2024/01/11 11:14:32;;;;;;;15.10;4.15;;;;;;;;;;4955787;28;20082;-45
2024/01/11 11:16:59;;;;;;;10.45;3.53;;;;;;;;;;4950867;28;20092;-46
2024/01/11 11:19:26;;;;;;;12.10;3.15;;;;;;;;;;4961192;28;20043;-46
2024/01/11 11:21:57;;;;;;;7.57;2.75;;;;;;;;;;4943123;28;20051;-55
2024/01/11 11:24:24;;;;;;;10.63;3.88;;;;;;;;;;4965016;28;20055;-51
2024/01/11 11:26:51;;;;;;;15.27;3.92;;;;;;;;;;4951947;28;20047;-46
2024/01/11 11:29:17;;;;;;;11.20;2.70;;;;;;;;;;4947686;28;20055;-51
2024/01/11 11:31:54;;;;;;;7.88;2.55;;;;;;;;;;4939571;28;20047;-49
2024/01/11 11:34:21;;;;;;;10.48;2.70;;;;;;;;;;4934614;28;20104;-47
2024/01/11 11:36:49;;;;;;;13.20;2.88;;;;;;;;;;4952873;28;20074;-48
2024/01/11 11:39:19;;;;;;;10.90;2.10;;;;;;;;;;4944951;28;20050;-45
2024/01/11 11:41:49;;;;;;;6.43;2.22;;;;;;;;;;4942651;28;20092;-53
2024/01/11 11:44:17;;;;;;;12.75;3.15;;;;;;;;;;4937257;28;20053;-46
2024/01/11 11:46:46;;;;;;;7.03;2.27;;;;;;;;;;4947794;28;20079;-48
2024/01/11 11:49:14;;;;;;;16.25;4.25;;;;;;;;;;4944678;28;20203;-51
2024/01/11 11:51:42;;;;;;;13.50;3.97;;;;;;;;;;4951358;28;20050;-49
2024/01/11 11:54:10;;;;;;;12.93;4.03;;;;;;;;;;4957910;28;20059;-47
2024/01/11 11:56:51;;;;;;;9.45;3.40;;;;;;;;;;4963896;28;20051;-47
2024/01/11 11:59:18;;;;;;;20.92;5.20;;;;;;;;;;4976977;28;20054;-48
2024/01/11 12:01:46;;;;;;;16.98;4.85;;;;;;;;;;4954587;28;20103;-51
2024/01/11 12:04:21;;;;;;;14.43;4.13;;;;;;;;;;4944023;28;20051;-49
2024/01/11 12:06:48;;;;;;;11.88;2.88;;;;;;;;;;4960777;28;20113;-50
2024/01/11 12:09:21;;;;;;;15.07;4.32;;;;;;;;;;4962748;28;20125;-50
2024/01/11 12:11:49;;;;;;;13.88;3.38;;;;;;;;;;4957527;28;20051;-52
2024/01/11 12:14:16;;;;;;;;;;;;;;;;;;4930609;28;20070;-50
2024/01/11 12:16:43;;;;;;;9.50;2.58;;;;;;;;;;4961198;28;19933;-48
2024/01/11 12:19:09;;;;;;;10.38;2.85;;;;;;;;;;4953161;28;20061;-47
2024/01/11 12:21:37;;;;;;;18.77;3.53;;;;;;;;;;4953079;28;20043;-47
2024/01/11 12:24:07;;;;;;;13.38;3.30;;;;;;;;;;4945671;28;20533;-50
2024/01/11 12:26:33;;;;;;;8.18;2.95;;;;;;;;;;4941787;28;20043;-49
2024/01/11 12:29:03;;;;;;;12.47;3.23;;;;;;;;;;4938788;28;20195;-48
2024/01/11 12:31:29;;;;;;;9.40;2.92;;;;;;;;;;4958517;28;20035;-49
2024/01/11 12:33:57;;;;;;;12.88;4.88;;;;;;;;;;4933986;28;20154;-51
2024/01/11 12:36:25;;;;;;;20.58;4.65;;;;;;;;;;4942441;28;20083;-50
2024/01/11 12:38:53;;;;;;;25.80;7.50;;;;;;;;;;4946030;28;20047;-50
2024/01/11 12:41:21;;;;;;;27.80;8.57;;;;;;;;;;4949225;28;20069;-53
2024/01/11 12:43:48;;;;;;;12.23;4.30;;;;;;;;;;4936493;28;20055;-52
2024/01/11 12:46:17;;;;;;;17.70;4.57;;;;;;;;;;4938672;28;20058;-54
2024/01/11 12:48:44;;;;;;;15.93;3.28;;;;;;;;;;4947087;28;20055;-50
2024/01/11 12:51:10;;;;;;;14.18;3.75;;;;;;;;;;4954738;28;20051;-47
2024/01/11 12:53:37;;;;;;;13.18;4.25;;;;;;;;;;4933357;28;20051;-55
2024/01/11 12:56:08;;;;;;;8.07;2.40;;;;;;;;;;4952801;28;20116;-49
2024/01/11 12:58:35;;;;;;;12.00;3.97;;;;;;;;;;4944622;28;20113;-55
2024/01/11 13:01:02;;;;;;;13.13;4.13;;;;;;;;;;4937788;28;20047;-53
2024/01/11 13:03:31;;;;;;;17.38;3.53;;;;;;;;;;4932736;28;20474;-52
2024/01/11 13:05:58;;;;;;;13.65;3.72;;;;;;;;;;4925827;28;20140;-54
2024/01/11 13:08:27;;;;;;;19.48;5.03;;;;;;;;;;4943231;28;20047;-48
2024/01/11 13:10:54;;;;;;;15.43;4.88;;;;;;;;;;4945041;28;20046;-50
2024/01/11 13:13:20;;;;;;;14.25;3.85;;;;;;;;;;4975054;28;20058;-48
2024/01/11 13:15:47;;;;;;;18.70;4.43;;;;;;;;;;4945510;28;20047;-54
2024/01/11 13:18:14;;;;;;;12.52;3.75;;;;;;;;;;4940848;28;20051;-52
2024/01/11 13:20:43;;;;;;;12.95;3.92;;;;;;;;;;4948607;28;20059;-52
2024/01/11 13:23:14;;;;;;;11.43;3.75;;;;;;;;;;4942270;28;20099;-51
2024/01/11 13:25:45;;;;;;;20.08;5.45;;;;;;;;;;4935777;28;20044;-49
2024/01/11 13:28:18;;;;;;;45.50;12.60;;;;;;;;;;4930618;28;20150;-51
2024/01/11 13:30:46;;;;;;;20.88;7.72;;;;;;;;;;4938595;28;20083;-54
2024/01/11 13:33:14;;;;;;;16.85;5.70;;;;;;;;;;4945551;28;20067;-56
2024/01/11 13:35:45;;;;;;;14.38;4.60;;;;;;;;;;4932332;28;20062;-50
2024/01/11 13:38:12;;;;;;;13.40;4.10;;;;;;;;;;4942360;28;20138;-49
2024/01/11 13:40:48;;;;;;;14.90;4.53;;;;;;;;;;4945192;28;20070;-53
2024/01/11 13:43:18;;;;;;;19.75;5.00;;;;;;;;;;4927557;28;20062;-50
2024/01/11 13:45:45;;;;;;;13.60;4.55;;;;;;;;;;4931045;28;20043;-53
2024/01/11 13:48:12;;;;;;;12.02;4.15;;;;;;;;;;4949806;28;20150;-50
2024/01/11 13:50:38;;;;;;;20.33;5.32;;;;;;;;;;4945020;28;20045;-54
2024/01/11 13:53:07;;;;;;;20.02;4.82;;;;;;;;;;4941759;28;20067;-52
2024/01/11 13:55:37;;;;;;;15.07;4.43;;;;;;;;;;4921859;28;20055;-55
2024/01/11 13:58:04;;;;;;;17.92;5.00;;;;;;;;;;4934285;28;20101;-51
2024/01/11 14:00:33;;;;;;;16.25;5.18;;;;;;;;;;4936716;28;20125;-53
2024/01/11 14:02:59;;;;;;;;;;;;;;;;;;4938527;28;20577;-56
2024/01/11 14:05:26;;;;;;;12.57;3.67;;;;;;;;;;4945469;28;19934;-54
2024/01/11 14:07:58;;;;;;;15.63;4.35;;;;;;;;;;4935285;28;20101;-56
2024/01/11 14:10:26;;;;;;;17.45;4.75;;;;;;;;;;4939464;28;20047;-53
2024/01/11 14:12:53;;;;;;;16.20;4.47;;;;;;;;;;4944759;28;20042;-56
2024/01/11 14:15:20;;;;;;;16.25;4.03;;;;;;;;;;4942133;28;20043;-51
2024/01/11 14:17:47;;;;;;;15.68;4.32;;;;;;;;;;4943625;28;20165;-51
2024/01/11 14:20:15;;;;;;;12.90;4.30;;;;;;;;;;4938006;28;20483;-54
2024/01/11 14:22:47;;;;;;;13.15;4.07;;;;;;;;;;4893181;28;20498;-55
2024/01/11 14:25:13;;;;;;;14.98;5.40;;;;;;;;;;4954336;28;20051;-53
2024/01/11 14:27:45;;;;;;;15.90;4.38;;;;;;;;;;4966144;28;20482;-53
2024/01/11 14:30:14;;;;;;;15.45;4.43;;;;;;;;;;4948064;28;20055;-53
2024/01/11 14:32:42;;;;;;;11.45;4.18;;;;;;;;;;4938542;28;20141;-53
2024/01/11 14:35:10;;;;;;;19.25;4.68;;;;;;;;;;4966185;28;20043;-52
2024/01/11 14:37:40;;;;;;;12.60;4.50;;;;;;;;;;4941393;28;20116;-52
2024/01/11 14:40:10;;;;;;;15.88;5.18;;;;;;;;;;4947372;28;20084;-52
2024/01/11 14:42:37;;;;;;;15.02;4.43;;;;;;;;;;4944589;28;20347;-53
2024/01/11 14:45:06;;;;;;;21.25;6.38;;;;;;;;;;4948917;28;20146;-57
2024/01/11 14:47:33;;;;;;;20.67;5.95;;;;;;;;;;4944085;28;20062;-52
2024/01/11 14:50:00;;;;;;;23.02;6.00;;;;;;;;;;4950850;28;20049;-52
2024/01/11 14:52:27;;;;;;;19.58;6.20;;;;;;;;;;4934746;28;20133;-56
2024/01/11 14:54:54;;;;;;;13.85;4.38;;;;;;;;;;4964372;28;20061;-56
2024/01/11 14:57:21;;;;;;;13.68;4.28;;;;;;;;;;4933852;28;20063;-56
2024/01/11 14:59:50;;;;;;;23.05;5.63;;;;;;;;;;5033297;28;20131;-53
2024/01/11 15:02:22;;;;;;;17.73;5.05;;;;;;;;;;4943698;28;20062;-52
2024/01/11 15:04:49;;;;;;;12.63;4.57;;;;;;;;;;4937615;28;20055;-54
2024/01/11 15:07:16;;;;;;;23.20;5.88;;;;;;;;;;4937012;28;20113;-52
2024/01/11 15:09:43;;;;;;;14.13;4.65;;;;;;;;;;4939005;28;20055;-53
2024/01/11 15:12:10;;;;;;;15.65;5.13;;;;;;;;;;4935497;28;20548;-57
2024/01/11 15:14:37;;;;;;;18.40;5.72;;;;;;;;;;4928025;28;20065;-56
2024/01/11 15:17:04;;;;;;;17.45;4.97;;;;;;;;;;4945223;28;20141;-54
2024/01/11 15:19:32;;;;;;;16.85;5.25;;;;;;;;;;4949496;28;20096;-54
2024/01/11 15:21:59;;;;;;;12.75;4.55;;;;;;;;;;4930216;28;20051;-54
2024/01/11 15:24:27;;;;;;;13.32;5.38;;;;;;;;;;4956724;28;20046;-55
2024/01/11 15:26:54;;;;;;;15.73;4.75;;;;;;;;;;4949391;28;20050;-55
2024/01/11 15:29:20;;;;;;;13.02;5.45;;;;;;;;;;4953700;28;20043;-54
2024/01/11 15:31:49;;;;;;;16.13;5.22;;;;;;;;;;4947043;28;20055;-54
2024/01/11 15:34:16;;;;;;;15.85;4.25;;;;;;;;;;4949837;28;20390;-55
2024/01/11 15:36:45;;;;;;;15.10;4.80;;;;;;;;;;4935198;28;20047;-57
2024/01/11 15:39:14;;;;;;;15.73;4.80;;;;;;;;;;4957303;28;20050;-53
2024/01/11 15:41:41;;;;;;;18.58;5.47;;;;;;;;;;4953545;28;20500;-55
2024/01/11 15:44:08;;;;;;;17.17;5.65;;;;;;;;;;4950952;28;20138;-58
2024/01/11 15:53:00;;;;;;;16.05;5.35;;;;;;;;;;4997573;28;20140;-55
2024/01/11 15:55:27;;;;;;;15.95;6.50;;;;;;;;;;5005103;28;20045;-53
2024/01/11 15:57:54;;;;;;;20.63;6.82;;;;;;;;;;5009640;28;20109;-54
2024/01/11 16:00:21;;;;;;;17.40;6.00;;;;;;;;;;5008844;28;20049;-51
2024/01/11 16:02:48;;;;;;;24.05;8.10;;;;;;;;;;4992525;28;20385;-52
2024/01/11 16:05:14;;;;;;;24.48;7.82;;;;;;;;;;5021084;28;20119;-51
2024/01/11 16:07:41;;;;;;;22.25;8.23;;;;;;;;;;5014304;28;20045;-54
2024/01/11 16:10:10;;;;;;;28.60;9.88;;;;;;;;;;5036832;28;20045;-57
2024/01/11 16:12:37;;;;;;;23.13;8.82;;;;;;;;;;5003918;28;20120;-56
2024/01/11 16:15:05;;;;;;;43.20;13.20;;;;;;;;;;5019758;28;20048;-53
2024/01/11 16:17:34;;;;;;;37.38;11.70;;;;;;;;;;5015045;28;20056;-56
2024/01/11 16:20:05;;;;;;;20.55;7.80;;;;;;;;;;5011888;28;20145;-56
2024/01/11 16:22:34;;;;;;;25.58;7.88;;;;;;;;;;5012168;28;20063;-56
2024/01/11 16:25:01;;;;;;;19.42;7.25;;;;;;;;;;5001314;28;20104;-55
2024/01/11 16:27:29;;;;;;;23.02;7.53;;;;;;;;;;5014347;28;20045;-58
2024/01/11 16:29:56;;;;;;;19.95;7.15;;;;;;;;;;5001496;28;20069;-55
2024/01/11 16:32:23;;;;;;;21.10;6.95;;;;;;;;;;4983300;28;20402;-52
2024/01/11 16:34:51;;;;;;;21.60;7.57;;;;;;;;;;4992039;28;20053;-55
2024/01/11 16:37:18;;;;;;;20.88;8.00;;;;;;;;;;5001766;28;20215;-57
2024/01/11 16:39:44;;;;;;;21.50;7.63;;;;;;;;;;5018536;28;20067;-50
2024/01/11 16:42:11;;;;;;;21.13;6.75;;;;;;;;;;4993061;28;20080;-55
2024/01/11 16:44:40;;;;;;;34.25;12.13;;;;;;;;;;4997455;28;20144;-56
2024/01/11 16:47:07;;;;;;;34.25;10.40;;;;;;;;;;5011269;28;20095;-55
2024/01/11 16:49:34;;;;;;;48.90;17.15;;;;;;;;;;5002531;28;20053;-55
2024/01/11 16:52:04;;;;;;;39.55;12.15;;;;;;;;;;4999028;28;20061;-56
2024/01/11 16:54:31;;;;;;;23.52;8.43;;;;;;;;;;4982314;28;20050;-54
2024/01/11 16:56:58;;;;;;;21.67;7.68;;;;;;;;;;4997296;28;20130;-57
2024/01/11 16:59:24;;;;;;;24.00;7.95;;;;;;;;;;4998629;28;20057;-58
2024/01/11 17:01:53;;;;;;;19.75;6.25;;;;;;;;;;4999375;28;20050;-55
2024/01/11 17:04:20;;;;;;;;;;;;;;;;;;4980515;28;20138;-58
2024/01/11 17:06:46;;;;;;;14.07;4.60;;;;;;;;;;4974078;28;19926;-54
2024/01/11 17:09:15;;;;;;;16.75;5.97;;;;;;;;;;5014114;28;20045;-52